EJA265 KPDK-KPBI
Flight info
| Callsign | EJA265 |
|---|---|
| Flight time | 1h 24m |
| Altitude | 41000 |
| Route | SOONE WALET ZPLEN VUUDU1 |
| Aircraft | CL60/M-SADE3FGHIJ1J3J4J7P2RWXY/HB1D1 |
Departure
| Time | 2026-04-23 22:36 |
|---|---|
| Airport | DeKalb Peachtree Airport (KPDK) |
Arrival
| Time | 2026-04-24 00:01 |
|---|---|
| Airport | Palm Beach International Airport (KPBI) |
| Time | Latitude | Longitude | Altitude | Speed | Heading |
|---|---|---|---|---|---|
| 2026-04-23 22:04 | 33.88066 | -84.30269 | 984 ft | 0 kts | 90° |
| 2026-04-23 22:33 | 33.88066 | -84.30267 | 984 ft | 0 kts | 90° |
| 2026-04-23 22:33 | 33.88075 | -84.30220 | 983 ft | 14 kts | 47° |
| 2026-04-23 22:33 | 33.88206 | -84.30138 | 981 ft | 24 kts | 24° |
| 2026-04-23 22:34 | 33.88224 | -84.30098 | 980 ft | 2 kts | 92° |
| 2026-04-23 22:34 | 33.88226 | -84.30056 | 980 ft | 9 kts | 50° |
| 2026-04-23 22:34 | 33.88329 | -84.30006 | 981 ft | 21 kts | 22° |
| 2026-04-23 22:34 | 33.88454 | -84.29941 | 980 ft | 12 kts | 44° |
| 2026-04-23 22:35 | 33.88442 | -84.29855 | 976 ft | 16 kts | 111° |
| 2026-04-23 22:35 | 33.88427 | -84.29810 | 974 ft | 0 kts | 111° |
| 2026-04-23 22:35 | 33.88420 | -84.29785 | 973 ft | 7 kts | 111° |
| 2026-04-23 22:35 | 33.88375 | -84.29720 | 969 ft | 14 kts | 197° |
| 2026-04-23 22:36 | 33.88201 | -84.29798 | 967 ft | 59 kts | 202° |
| 2026-04-23 22:36 | 33.87499 | -84.30112 | 1023 ft | 149 kts | 200° |
| 2026-04-23 22:36 | 33.86509 | -84.30591 | 1946 ft | 160 kts | 202° |
| 2026-04-23 22:36 | 33.85384 | -84.31030 | 2699 ft | 187 kts | 195° |
| 2026-04-23 22:37 | 33.84103 | -84.31435 | 3259 ft | 195 kts | 194° |
| 2026-04-23 22:37 | 33.82658 | -84.31882 | 3593 ft | 236 kts | 195° |
| 2026-04-23 22:37 | 33.80964 | -84.32404 | 4330 ft | 262 kts | 194° |
| 2026-04-23 22:37 | 33.79155 | -84.32959 | 4828 ft | 275 kts | 194° |
| 2026-04-23 22:38 | 33.77284 | -84.33442 | 4972 ft | 274 kts | 187° |
| 2026-04-23 22:38 | 33.75404 | -84.33646 | 5002 ft | 272 kts | 185° |
| 2026-04-23 22:38 | 33.73490 | -84.33813 | 4993 ft | 271 kts | 185° |
| 2026-04-23 22:38 | 33.71625 | -84.33974 | 4991 ft | 270 kts | 185° |
| 2026-04-23 22:39 | 33.69744 | -84.34135 | 4998 ft | 270 kts | 185° |
| 2026-04-23 22:39 | 33.67831 | -84.34299 | 5098 ft | 285 kts | 185° |
| 2026-04-23 22:39 | 33.65822 | -84.34470 | 6217 ft | 292 kts | 185° |
| 2026-04-23 22:39 | 33.63877 | -84.34632 | 7671 ft | 286 kts | 185° |
| 2026-04-23 22:40 | 33.61902 | -84.34797 | 8893 ft | 287 kts | 185° |
| 2026-04-23 22:40 | 33.59915 | -84.34963 | 9998 ft | 292 kts | 185° |
| 2026-04-23 22:40 | 33.55653 | -84.35319 | 11443 ft | 327 kts | 184° |
| 2026-04-23 22:41 | 33.53360 | -84.35064 | 12362 ft | 336 kts | 165° |
| 2026-04-23 22:41 | 33.51147 | -84.34223 | 13372 ft | 341 kts | 163° |
| 2026-04-23 22:41 | 33.48879 | -84.33350 | 14396 ft | 347 kts | 163° |
| 2026-04-23 22:41 | 33.46569 | -84.32471 | 15448 ft | 351 kts | 163° |
| 2026-04-23 22:42 | 33.44239 | -84.31585 | 16408 ft | 357 kts | 163° |
| 2026-04-23 22:42 | 33.41867 | -84.30678 | 17288 ft | 363 kts | 163° |
| 2026-04-23 22:42 | 33.39442 | -84.29757 | 18155 ft | 369 kts | 163° |
| 2026-04-23 22:42 | 33.36977 | -84.28822 | 19012 ft | 374 kts | 163° |
| 2026-04-23 22:43 | 33.34472 | -84.27873 | 19820 ft | 379 kts | 163° |
| 2026-04-23 22:43 | 33.31969 | -84.26927 | 20591 ft | 384 kts | 163° |
| 2026-04-23 22:43 | 33.29398 | -84.25955 | 21324 ft | 389 kts | 164° |
| 2026-04-23 22:43 | 33.26796 | -84.24972 | 22041 ft | 394 kts | 164° |
| 2026-04-23 22:44 | 33.24194 | -84.23991 | 22738 ft | 399 kts | 164° |
| 2026-04-23 22:44 | 33.21530 | -84.22987 | 23415 ft | 403 kts | 164° |
| 2026-04-23 22:44 | 33.18833 | -84.21972 | 24096 ft | 408 kts | 164° |
| 2026-04-23 22:44 | 33.16099 | -84.20943 | 24750 ft | 412 kts | 164° |
| 2026-04-23 22:45 | 33.13371 | -84.19918 | 25390 ft | 416 kts | 164° |
| 2026-04-23 22:45 | 33.10577 | -84.18869 | 26027 ft | 420 kts | 164° |
| 2026-04-23 22:45 | 33.07791 | -84.17824 | 26639 ft | 424 kts | 163° |
| 2026-04-23 22:45 | 33.04950 | -84.16758 | 27240 ft | 428 kts | 163° |
| 2026-04-23 22:46 | 33.02093 | -84.15688 | 27831 ft | 432 kts | 163° |
| 2026-04-23 22:46 | 32.99204 | -84.14606 | 28411 ft | 435 kts | 163° |
| 2026-04-23 22:46 | 32.96315 | -84.13525 | 29023 ft | 438 kts | 163° |
| 2026-04-23 22:46 | 32.93313 | -84.12403 | 29763 ft | 437 kts | 163° |
| 2026-04-23 22:47 | 32.90403 | -84.11316 | 30521 ft | 434 kts | 163° |
| 2026-04-23 22:47 | 32.87547 | -84.10249 | 31265 ft | 430 kts | 163° |
| 2026-04-23 22:47 | 32.84693 | -84.09184 | 31988 ft | 427 kts | 163° |
| 2026-04-23 22:47 | 32.81838 | -84.08120 | 32678 ft | 425 kts | 163° |
| 2026-04-23 22:48 | 32.79034 | -84.07076 | 33305 ft | 424 kts | 163° |
| 2026-04-23 22:48 | 32.76204 | -84.06022 | 33897 ft | 424 kts | 163° |
| 2026-04-23 22:48 | 32.73407 | -84.04981 | 34461 ft | 424 kts | 163° |
| 2026-04-23 22:48 | 32.70582 | -84.03931 | 34998 ft | 424 kts | 163° |
| 2026-04-23 22:49 | 32.67757 | -84.02882 | 35498 ft | 424 kts | 163° |
| 2026-04-23 22:49 | 32.64964 | -84.01846 | 35992 ft | 423 kts | 163° |
| 2026-04-23 22:49 | 32.62140 | -84.00798 | 36471 ft | 422 kts | 163° |
| 2026-04-23 22:49 | 32.59368 | -83.99771 | 36909 ft | 422 kts | 163° |
| 2026-04-23 22:50 | 32.56557 | -83.98730 | 37318 ft | 422 kts | 163° |
| 2026-04-23 22:50 | 32.53751 | -83.97691 | 37712 ft | 422 kts | 163° |
| 2026-04-23 22:50 | 32.50940 | -83.96652 | 38102 ft | 422 kts | 163° |
| 2026-04-23 22:50 | 32.48114 | -83.95607 | 38490 ft | 422 kts | 162° |
| 2026-04-23 22:51 | 32.45341 | -83.94583 | 38839 ft | 422 kts | 162° |
| 2026-04-23 22:51 | 32.42520 | -83.93542 | 39184 ft | 422 kts | 162° |
| 2026-04-23 22:51 | 32.39703 | -83.92502 | 39520 ft | 422 kts | 162° |
| 2026-04-23 22:51 | 32.36927 | -83.91479 | 39847 ft | 422 kts | 163° |
| 2026-04-23 22:52 | 32.34116 | -83.90461 | 40178 ft | 421 kts | 163° |
| 2026-04-23 22:52 | 32.31322 | -83.89459 | 40498 ft | 421 kts | 163° |
| 2026-04-23 22:52 | 32.28507 | -83.88448 | 40808 ft | 420 kts | 163° |
| 2026-04-23 22:52 | 32.25696 | -83.87440 | 41066 ft | 421 kts | 163° |
| 2026-04-23 22:53 | 32.22905 | -83.86440 | 41073 ft | 427 kts | 163° |
| 2026-04-23 22:53 | 32.17135 | -83.84375 | 41056 ft | 438 kts | 163° |
| 2026-04-23 22:54 | 32.11220 | -83.82261 | 41048 ft | 447 kts | 163° |
| 2026-04-23 22:54 | 32.05221 | -83.80119 | 41057 ft | 453 kts | 163° |
| 2026-04-23 22:55 | 31.99163 | -83.77959 | 41059 ft | 459 kts | 163° |
| 2026-04-23 22:55 | 31.93022 | -83.75773 | 41065 ft | 463 kts | 163° |
| 2026-04-23 22:56 | 31.86880 | -83.73589 | 41067 ft | 460 kts | 163° |
| 2026-04-23 22:56 | 31.80751 | -83.71411 | 41068 ft | 456 kts | 163° |
| 2026-04-23 22:57 | 31.74705 | -83.69267 | 41069 ft | 455 kts | 163° |
| 2026-04-23 22:57 | 31.68642 | -83.67113 | 41068 ft | 454 kts | 163° |
| 2026-04-23 22:58 | 31.62632 | -83.64812 | 41066 ft | 455 kts | 162° |
| 2026-04-23 22:58 | 31.56656 | -83.62515 | 41063 ft | 455 kts | 162° |
| 2026-04-23 22:59 | 31.50618 | -83.60199 | 41061 ft | 455 kts | 162° |
| 2026-04-23 22:59 | 31.44630 | -83.57906 | 41058 ft | 455 kts | 162° |
| 2026-04-23 23:00 | 31.38585 | -83.55594 | 41055 ft | 454 kts | 162° |
| 2026-04-23 23:00 | 31.32621 | -83.53316 | 41052 ft | 454 kts | 162° |
| 2026-04-23 23:01 | 31.26602 | -83.51022 | 41049 ft | 454 kts | 162° |
| 2026-04-23 23:01 | 31.20574 | -83.48727 | 41048 ft | 454 kts | 163° |
| 2026-04-23 23:02 | 31.14589 | -83.46452 | 41048 ft | 453 kts | 163° |
| 2026-04-23 23:02 | 31.08599 | -83.44177 | 41047 ft | 453 kts | 163° |
| 2026-04-23 23:03 | 31.02578 | -83.41894 | 41047 ft | 453 kts | 163° |
| 2026-04-23 23:03 | 30.96607 | -83.39634 | 41045 ft | 453 kts | 163° |
| 2026-04-23 23:04 | 30.90616 | -83.37368 | 41044 ft | 453 kts | 163° |
| 2026-04-23 23:04 | 30.84609 | -83.35100 | 41042 ft | 452 kts | 163° |
| 2026-04-23 23:05 | 30.78654 | -83.32854 | 41042 ft | 452 kts | 164° |
| 2026-04-23 23:05 | 30.72662 | -83.30596 | 41044 ft | 452 kts | 163° |
| 2026-04-23 23:06 | 30.66885 | -83.27784 | 41043 ft | 453 kts | 156° |
| 2026-04-23 23:06 | 30.61164 | -83.24693 | 41044 ft | 453 kts | 157° |
| 2026-04-23 23:07 | 30.55421 | -83.21598 | 41042 ft | 453 kts | 157° |
| 2026-04-23 23:07 | 30.49710 | -83.18526 | 41043 ft | 453 kts | 157° |
| 2026-04-23 23:08 | 30.44022 | -83.15470 | 41044 ft | 453 kts | 157° |
| 2026-04-23 23:08 | 30.38313 | -83.12409 | 41048 ft | 452 kts | 157° |
| 2026-04-23 23:09 | 30.32581 | -83.09339 | 41049 ft | 452 kts | 157° |
| 2026-04-23 23:09 | 30.26894 | -83.06298 | 41048 ft | 452 kts | 157° |
| 2026-04-23 23:10 | 30.21190 | -83.03252 | 41047 ft | 452 kts | 157° |
| 2026-04-23 23:10 | 30.15470 | -83.00201 | 41046 ft | 452 kts | 157° |
| 2026-04-23 23:11 | 30.09733 | -82.97146 | 41047 ft | 453 kts | 157° |
| 2026-04-23 23:11 | 30.04040 | -82.94118 | 41047 ft | 453 kts | 157° |
| 2026-04-23 23:12 | 29.98299 | -82.91067 | 41048 ft | 453 kts | 157° |
| 2026-04-23 23:12 | 29.92586 | -82.88036 | 41051 ft | 453 kts | 157° |
| 2026-04-23 23:13 | 29.86861 | -82.85004 | 41052 ft | 453 kts | 158° |
| 2026-04-23 23:13 | 29.81095 | -82.81952 | 41056 ft | 454 kts | 158° |
| 2026-04-23 23:14 | 29.75353 | -82.78917 | 41058 ft | 455 kts | 158° |
| 2026-04-23 23:14 | 29.69640 | -82.75902 | 41059 ft | 455 kts | 158° |
| 2026-04-23 23:15 | 29.63875 | -82.72862 | 41060 ft | 455 kts | 158° |
| 2026-04-23 23:15 | 29.58094 | -82.69819 | 41061 ft | 455 kts | 158° |
| 2026-04-23 23:16 | 29.52353 | -82.66799 | 41061 ft | 455 kts | 158° |
| 2026-04-23 23:16 | 29.46594 | -82.63775 | 41060 ft | 456 kts | 158° |
| 2026-04-23 23:17 | 29.40839 | -82.60755 | 41059 ft | 456 kts | 158° |
| 2026-04-23 23:17 | 29.35068 | -82.57732 | 41059 ft | 456 kts | 159° |
| 2026-04-23 23:18 | 29.29311 | -82.54720 | 41058 ft | 456 kts | 159° |
| 2026-04-23 23:18 | 29.23355 | -82.52354 | 41057 ft | 449 kts | 172° |
| 2026-04-23 23:19 | 29.17199 | -82.51204 | 41057 ft | 448 kts | 175° |
| 2026-04-23 23:19 | 29.11071 | -82.50101 | 41058 ft | 449 kts | 175° |
| 2026-04-23 23:20 | 29.04881 | -82.48987 | 41058 ft | 449 kts | 175° |
| 2026-04-23 23:20 | 28.98707 | -82.47875 | 41058 ft | 449 kts | 175° |
| 2026-04-23 23:21 | 28.92538 | -82.46763 | 41058 ft | 449 kts | 175° |
| 2026-04-23 23:21 | 28.86363 | -82.45651 | 41059 ft | 449 kts | 175° |
| 2026-04-23 23:22 | 28.80183 | -82.44537 | 41059 ft | 450 kts | 175° |
| 2026-04-23 23:22 | 28.74014 | -82.43426 | 41058 ft | 450 kts | 175° |
| 2026-04-23 23:23 | 28.67816 | -82.42313 | 41047 ft | 450 kts | 175° |
| 2026-04-23 23:23 | 28.61622 | -82.41199 | 41056 ft | 450 kts | 175° |
| 2026-04-23 23:24 | 28.55418 | -82.40086 | 41057 ft | 451 kts | 175° |
| 2026-04-23 23:24 | 28.49217 | -82.38973 | 41059 ft | 451 kts | 175° |
| 2026-04-23 23:25 | 28.42985 | -82.37857 | 41055 ft | 452 kts | 175° |
| 2026-04-23 23:25 | 28.36775 | -82.36746 | 41057 ft | 452 kts | 175° |
| 2026-04-23 23:26 | 28.30557 | -82.35634 | 41057 ft | 452 kts | 176° |
| 2026-04-23 23:26 | 28.24354 | -82.34526 | 41058 ft | 452 kts | 176° |
| 2026-04-23 23:27 | 28.18160 | -82.33421 | 41057 ft | 452 kts | 176° |
| 2026-04-23 23:27 | 28.11896 | -82.32299 | 41034 ft | 453 kts | 176° |
| 2026-04-23 23:27 | 28.08775 | -82.31737 | 40610 ft | 452 kts | 176° |
| 2026-04-23 23:28 | 28.05690 | -82.31178 | 40024 ft | 446 kts | 176° |
| 2026-04-23 23:28 | 28.02666 | -82.30545 | 39590 ft | 441 kts | 171° |
| 2026-04-23 23:28 | 27.99759 | -82.29601 | 39099 ft | 438 kts | 168° |
| 2026-04-23 23:28 | 27.96847 | -82.28607 | 38532 ft | 434 kts | 169° |
| 2026-04-23 23:29 | 27.93962 | -82.27628 | 37906 ft | 430 kts | 169° |
| 2026-04-23 23:29 | 27.91101 | -82.26656 | 37274 ft | 426 kts | 169° |
| 2026-04-23 23:29 | 27.88275 | -82.25698 | 36738 ft | 422 kts | 169° |
| 2026-04-23 23:29 | 27.85462 | -82.24747 | 36098 ft | 424 kts | 170° |
| 2026-04-23 23:30 | 27.82625 | -82.23788 | 35563 ft | 420 kts | 170° |
| 2026-04-23 23:30 | 27.79842 | -82.22847 | 34998 ft | 422 kts | 170° |
| 2026-04-23 23:30 | 27.77003 | -82.21890 | 34444 ft | 423 kts | 171° |
| 2026-04-23 23:30 | 27.74155 | -82.20928 | 33879 ft | 425 kts | 171° |
| 2026-04-23 23:31 | 27.71310 | -82.19968 | 33309 ft | 425 kts | 171° |
| 2026-04-23 23:31 | 27.68519 | -82.19027 | 32750 ft | 423 kts | 171° |
| 2026-04-23 23:31 | 27.65699 | -82.18074 | 32187 ft | 419 kts | 171° |
| 2026-04-23 23:31 | 27.62904 | -82.17131 | 31609 ft | 416 kts | 171° |
| 2026-04-23 23:32 | 27.60137 | -82.16206 | 31076 ft | 409 kts | 171° |
| 2026-04-23 23:32 | 27.57431 | -82.15312 | 30542 ft | 404 kts | 171° |
| 2026-04-23 23:32 | 27.54738 | -82.14423 | 30022 ft | 399 kts | 171° |
| 2026-04-23 23:32 | 27.52078 | -82.13547 | 29506 ft | 396 kts | 171° |
| 2026-04-23 23:33 | 27.49446 | -82.12681 | 28986 ft | 393 kts | 171° |
| 2026-04-23 23:33 | 27.46852 | -82.11828 | 28463 ft | 392 kts | 170° |
| 2026-04-23 23:33 | 27.44222 | -82.10963 | 27937 ft | 390 kts | 170° |
| 2026-04-23 23:33 | 27.41651 | -82.10119 | 27423 ft | 387 kts | 170° |
| 2026-04-23 23:34 | 27.39074 | -82.09272 | 26914 ft | 384 kts | 170° |
| 2026-04-23 23:34 | 27.36499 | -82.08427 | 26402 ft | 381 kts | 169° |
| 2026-04-23 23:34 | 27.33960 | -82.07591 | 25898 ft | 379 kts | 169° |
| 2026-04-23 23:34 | 27.31479 | -82.06759 | 25521 ft | 371 kts | 169° |
| 2026-04-23 23:35 | 27.29040 | -82.05938 | 25474 ft | 359 kts | 168° |
| 2026-04-23 23:35 | 27.26626 | -82.05131 | 25596 ft | 364 kts | 168° |
| 2026-04-23 23:35 | 27.24122 | -82.04301 | 25371 ft | 381 kts | 168° |
| 2026-04-23 23:35 | 27.21572 | -82.03449 | 25251 ft | 379 kts | 168° |
| 2026-04-23 23:36 | 27.19041 | -82.02603 | 25049 ft | 379 kts | 168° |
| 2026-04-23 23:36 | 27.16509 | -82.01756 | 24879 ft | 375 kts | 168° |
| 2026-04-23 23:36 | 27.14008 | -82.00920 | 24716 ft | 373 kts | 168° |
| 2026-04-23 23:36 | 27.11542 | -82.00097 | 24538 ft | 371 kts | 167° |
| 2026-04-23 23:37 | 27.09053 | -81.99266 | 24390 ft | 369 kts | 167° |
| 2026-04-23 23:37 | 27.06582 | -81.98441 | 24234 ft | 370 kts | 167° |
| 2026-04-23 23:37 | 27.04213 | -81.97307 | 24092 ft | 374 kts | 152° |
| 2026-04-23 23:37 | 27.02186 | -81.95449 | 23892 ft | 381 kts | 135° |
| 2026-04-23 23:38 | 27.00470 | -81.93159 | 23597 ft | 382 kts | 131° |
| 2026-04-23 23:38 | 26.98803 | -81.90889 | 23370 ft | 377 kts | 131° |
| 2026-04-23 23:38 | 26.97127 | -81.88615 | 23138 ft | 377 kts | 131° |
| 2026-04-23 23:38 | 26.95455 | -81.86347 | 22898 ft | 374 kts | 131° |
| 2026-04-23 23:39 | 26.93792 | -81.84095 | 22684 ft | 373 kts | 131° |
| 2026-04-23 23:39 | 26.92153 | -81.81874 | 22464 ft | 372 kts | 131° |
| 2026-04-23 23:39 | 26.90511 | -81.79651 | 22243 ft | 370 kts | 131° |
| 2026-04-23 23:39 | 26.88853 | -81.77408 | 22025 ft | 369 kts | 131° |
| 2026-04-23 23:40 | 26.87232 | -81.75217 | 21788 ft | 368 kts | 131° |
| 2026-04-23 23:40 | 26.85592 | -81.73025 | 21564 ft | 365 kts | 132° |
| 2026-04-23 23:40 | 26.83951 | -81.70870 | 21340 ft | 364 kts | 132° |
| 2026-04-23 23:40 | 26.82302 | -81.68704 | 21115 ft | 362 kts | 132° |
| 2026-04-23 23:41 | 26.80672 | -81.66564 | 20899 ft | 361 kts | 132° |
| 2026-04-23 23:41 | 26.79044 | -81.64429 | 20661 ft | 359 kts | 132° |
| 2026-04-23 23:41 | 26.77419 | -81.62296 | 20449 ft | 357 kts | 132° |
| 2026-04-23 23:41 | 26.75826 | -81.60207 | 20231 ft | 356 kts | 132° |
| 2026-04-23 23:42 | 26.74216 | -81.58097 | 20011 ft | 354 kts | 132° |
| 2026-04-23 23:42 | 26.72622 | -81.56010 | 19793 ft | 353 kts | 132° |
| 2026-04-23 23:42 | 26.71035 | -81.53931 | 19602 ft | 351 kts | 132° |
| 2026-04-23 23:42 | 26.69495 | -81.51785 | 19349 ft | 351 kts | 124° |
| 2026-04-23 23:43 | 26.68478 | -81.49306 | 19162 ft | 352 kts | 106° |
| 2026-04-23 23:43 | 26.68157 | -81.46631 | 18782 ft | 353 kts | 88° |
| 2026-04-23 23:43 | 26.68555 | -81.43944 | 18230 ft | 352 kts | 74° |
| 2026-04-23 23:43 | 26.69186 | -81.41310 | 17828 ft | 347 kts | 74° |
| 2026-04-23 23:44 | 26.69790 | -81.38750 | 17414 ft | 342 kts | 74° |
| 2026-04-23 23:44 | 26.70394 | -81.36187 | 17021 ft | 337 kts | 74° |
| 2026-04-23 23:44 | 26.70992 | -81.33646 | 16492 ft | 338 kts | 75° |
| 2026-04-23 23:44 | 26.71583 | -81.31130 | 16148 ft | 331 kts | 75° |
| 2026-04-23 23:45 | 26.72158 | -81.28685 | 15759 ft | 328 kts | 75° |
| 2026-04-23 23:45 | 26.72741 | -81.26199 | 15357 ft | 328 kts | 75° |
| 2026-04-23 23:45 | 26.73313 | -81.23757 | 14980 ft | 327 kts | 75° |
| 2026-04-23 23:45 | 26.73889 | -81.21291 | 14604 ft | 325 kts | 75° |
| 2026-04-23 23:46 | 26.74452 | -81.18883 | 14307 ft | 322 kts | 75° |
| 2026-04-23 23:46 | 26.75013 | -81.16479 | 14059 ft | 320 kts | 75° |
| 2026-04-23 23:46 | 26.75576 | -81.14053 | 13773 ft | 320 kts | 75° |
| 2026-04-23 23:46 | 26.76131 | -81.11656 | 13431 ft | 320 kts | 75° |
| 2026-04-23 23:47 | 26.76691 | -81.09255 | 13126 ft | 316 kts | 75° |
| 2026-04-23 23:47 | 26.77243 | -81.06911 | 12828 ft | 314 kts | 75° |
| 2026-04-23 23:47 | 26.77785 | -81.04530 | 12515 ft | 313 kts | 75° |
| 2026-04-23 23:47 | 26.78331 | -81.02213 | 12218 ft | 311 kts | 74° |
| 2026-04-23 23:48 | 26.78754 | -80.99841 | 11925 ft | 309 kts | 85° |
| 2026-04-23 23:48 | 26.78864 | -80.97449 | 11594 ft | 307 kts | 87° |
| 2026-04-23 23:48 | 26.78960 | -80.95094 | 11329 ft | 305 kts | 87° |
| 2026-04-23 23:48 | 26.79059 | -80.92711 | 11031 ft | 304 kts | 87° |
| 2026-04-23 23:49 | 26.79256 | -80.88030 | 10450 ft | 300 kts | 87° |
| 2026-04-23 23:49 | 26.79353 | -80.85716 | 10180 ft | 298 kts | 87° |
| 2026-04-23 23:49 | 26.79453 | -80.83401 | 9895 ft | 297 kts | 87° |
| 2026-04-23 23:50 | 26.79539 | -80.81087 | 9595 ft | 294 kts | 87° |
| 2026-04-23 23:50 | 26.79628 | -80.78818 | 9310 ft | 292 kts | 87° |
| 2026-04-23 23:50 | 26.79659 | -80.76579 | 9036 ft | 290 kts | 96° |
| 2026-04-23 23:50 | 26.79143 | -80.74422 | 8750 ft | 287 kts | 110° |
| 2026-04-23 23:51 | 26.78441 | -80.72335 | 8439 ft | 286 kts | 110° |
| 2026-04-23 23:51 | 26.77748 | -80.70255 | 8151 ft | 284 kts | 110° |
| 2026-04-23 23:51 | 26.77059 | -80.68201 | 7867 ft | 282 kts | 110° |
| 2026-04-23 23:51 | 26.76372 | -80.66136 | 7546 ft | 281 kts | 110° |
| 2026-04-23 23:52 | 26.75703 | -80.64123 | 7284 ft | 277 kts | 110° |
| 2026-04-23 23:52 | 26.75029 | -80.62094 | 7009 ft | 276 kts | 110° |
| 2026-04-23 23:52 | 26.74366 | -80.60104 | 6726 ft | 275 kts | 110° |
| 2026-04-23 23:52 | 26.73692 | -80.58102 | 6461 ft | 272 kts | 110° |
| 2026-04-23 23:53 | 26.73009 | -80.56142 | 6159 ft | 272 kts | 110° |
| 2026-04-23 23:53 | 26.72325 | -80.54185 | 5901 ft | 269 kts | 110° |
| 2026-04-23 23:53 | 26.71644 | -80.52239 | 5613 ft | 267 kts | 110° |
| 2026-04-23 23:53 | 26.70976 | -80.50330 | 5360 ft | 265 kts | 110° |
| 2026-04-23 23:54 | 26.70313 | -80.48419 | 5113 ft | 263 kts | 109° |
| 2026-04-23 23:54 | 26.69932 | -80.46457 | 4855 ft | 255 kts | 95° |
| 2026-04-23 23:54 | 26.69792 | -80.44505 | 4591 ft | 246 kts | 94° |
| 2026-04-23 23:54 | 26.69680 | -80.42620 | 4313 ft | 239 kts | 92° |
| 2026-04-23 23:55 | 26.69597 | -80.40796 | 4022 ft | 234 kts | 92° |
| 2026-04-23 23:55 | 26.69513 | -80.38999 | 3719 ft | 229 kts | 92° |
| 2026-04-23 23:55 | 26.69440 | -80.37234 | 3412 ft | 225 kts | 92° |
| 2026-04-23 23:55 | 26.69368 | -80.35504 | 3128 ft | 221 kts | 92° |
| 2026-04-23 23:56 | 26.69299 | -80.33823 | 3024 ft | 210 kts | 93° |
| 2026-04-23 23:56 | 26.69233 | -80.32262 | 3029 ft | 197 kts | 93° |
| 2026-04-23 23:56 | 26.69169 | -80.30719 | 3000 ft | 198 kts | 93° |
| 2026-04-23 23:56 | 26.69104 | -80.29187 | 2993 ft | 196 kts | 93° |
| 2026-04-23 23:57 | 26.69039 | -80.27657 | 2950 ft | 199 kts | 93° |
| 2026-04-23 23:57 | 26.68978 | -80.26135 | 2716 ft | 196 kts | 93° |
| 2026-04-23 23:57 | 26.68911 | -80.24625 | 2488 ft | 192 kts | 94° |
| 2026-04-23 23:57 | 26.68847 | -80.23137 | 2231 ft | 190 kts | 93° |
| 2026-04-23 23:58 | 26.68785 | -80.21667 | 1962 ft | 187 kts | 93° |
| 2026-04-23 23:58 | 26.68728 | -80.20277 | 1761 ft | 172 kts | 93° |
| 2026-04-23 23:58 | 26.68672 | -80.18980 | 1525 ft | 159 kts | 94° |
| 2026-04-23 23:58 | 26.68620 | -80.17790 | 1254 ft | 146 kts | 94° |
| 2026-04-23 23:59 | 26.68576 | -80.16754 | 1141 ft | 123 kts | 94° |
| 2026-04-23 23:59 | 26.68539 | -80.15855 | 1058 ft | 111 kts | 94° |
| 2026-04-23 23:59 | 26.68499 | -80.14955 | 794 ft | 116 kts | 94° |
| 2026-04-23 23:59 | 26.68461 | -80.14096 | 721 ft | 115 kts | 94° |
| 2026-04-24 00:00 | 26.68421 | -80.13197 | 486 ft | 112 kts | 94° |
| 2026-04-24 00:00 | 26.68384 | -80.12325 | 396 ft | 114 kts | 95° |
| 2026-04-24 00:00 | 26.68346 | -80.11442 | 239 ft | 113 kts | 95° |
| 2026-04-24 00:00 | 26.68309 | -80.10568 | 72 ft | 113 kts | 94° |
| 2026-04-24 00:01 | 26.68272 | -80.09747 | 18 ft | 91 kts | 95° |
| 2026-04-24 00:01 | 26.68251 | -80.09249 | 17 ft | 37 kts | 93° |
| 2026-04-24 00:01 | 26.68239 | -80.09016 | 17 ft | 29 kts | 95° |
| 2026-04-24 00:01 | 26.68271 | -80.08845 | 17 ft | 13 kts | 9° |
| 2026-04-24 00:02 | 26.68346 | -80.08876 | 17 ft | 10 kts | 281° |
| 2026-04-24 00:02 | 26.68352 | -80.09015 | 17 ft | 22 kts | 272° |
| 2026-04-24 00:02 | 26.68355 | -80.09203 | 17 ft | 26 kts | 269° |
| 2026-04-24 00:02 | 26.68395 | -80.09353 | 17 ft | 20 kts | 315° |
| 2026-04-24 00:03 | 26.68505 | -80.09475 | 17 ft | 24 kts | 316° |
| 2026-04-24 00:03 | 26.68637 | -80.09618 | 17 ft | 28 kts | 315° |
| 2026-04-24 00:03 | 26.68766 | -80.09758 | 17 ft | 21 kts | 316° |
| 2026-04-24 00:03 | 26.68853 | -80.09855 | 17 ft | 13 kts | 313° |
| 2026-04-24 00:04 | 26.68928 | -80.09943 | 17 ft | 17 kts | 314° |
| 2026-04-24 00:04 | 26.68983 | -80.10003 | 17 ft | 7 kts | 319° |
| 2026-04-24 00:04 | 26.69029 | -80.10055 | 17 ft | 11 kts | 313° |
| 2026-04-24 00:04 | 26.69100 | -80.10134 | 17 ft | 16 kts | 315° |
| 2026-04-24 00:05 | 26.69164 | -80.10229 | 17 ft | 12 kts | 282° |
| 2026-04-24 00:05 | 26.69178 | -80.10314 | 18 ft | 12 kts | 282° |
| 2026-04-24 00:05 | 26.69163 | -80.10410 | 20 ft | 7 kts | 230° |
| 2026-04-24 00:05 | 26.69119 | -80.10455 | 20 ft | 10 kts | 218° |
| 2026-04-24 00:06 | 26.69049 | -80.10514 | 20 ft | 15 kts | 265° |
| 2026-04-24 00:06 | 26.69052 | -80.10635 | 20 ft | 10 kts | 262° |
| 2026-04-24 00:06 | 26.69027 | -80.10712 | 21 ft | 14 kts | 313° |
| 2026-04-24 00:06 | 26.69101 | -80.10739 | 21 ft | 5 kts | 348° |
| 2026-04-24 00:07 | 26.69126 | -80.10721 | 20 ft | 0 kts | 64° |